sensor_id;sensor_type;location;lat;lon;timestamp;P1;durP1;ratioP1;P2;durP2;ratioP2
60610;SDS011;46439;51.164;13.572;2023-03-05T00:01:12;11.40;;;2.50;;
60610;SDS011;46439;51.164;13.572;2023-03-05T00:03:43;10.80;;;2.60;;
60610;SDS011;46439;51.164;13.572;2023-03-05T00:06:12;10.70;;;2.00;;
60610;SDS011;46439;51.164;13.572;2023-03-05T00:08:42;9.10;;;2.20;;
60610;SDS011;46439;51.164;13.572;2023-03-05T00:11:11;11.40;;;2.20;;
60610;SDS011;46439;51.164;13.572;2023-03-05T00:13:40;9.90;;;2.40;;
60610;SDS011;46439;51.164;13.572;2023-03-05T00:16:09;9.50;;;2.30;;
60610;SDS011;46439;51.164;13.572;2023-03-05T00:18:40;7.00;;;2.40;;
60610;SDS011;46439;51.164;13.572;2023-03-05T00:21:23;8.50;;;2.00;;
60610;SDS011;46439;51.164;13.572;2023-03-05T00:23:53;10.90;;;2.70;;
60610;SDS011;46439;51.164;13.572;2023-03-05T00:26:23;7.80;;;2.10;;
60610;SDS011;46439;51.164;13.572;2023-03-05T00:28:53;9.90;;;2.60;;
60610;SDS011;46439;51.164;13.572;2023-03-05T00:31:25;11.80;;;2.70;;
60610;SDS011;46439;51.164;13.572;2023-03-05T00:33:59;6.80;;;2.40;;
60610;SDS011;46439;51.164;13.572;2023-03-05T00:36:30;12.80;;;2.80;;
60610;SDS011;46439;51.164;13.572;2023-03-05T00:38:59;6.60;;;2.10;;
60610;SDS011;46439;51.164;13.572;2023-03-05T00:41:27;7.40;;;2.30;;
60610;SDS011;46439;51.164;13.572;2023-03-05T00:43:56;9.40;;;2.00;;
60610;SDS011;46439;51.164;13.572;2023-03-05T00:46:25;13.50;;;2.60;;
60610;SDS011;46439;51.164;13.572;2023-03-05T00:48:54;13.90;;;2.30;;
60610;SDS011;46439;51.164;13.572;2023-03-05T00:51:23;10.90;;;2.40;;
60610;SDS011;46439;51.164;13.572;2023-03-05T00:53:52;7.20;;;2.00;;
60610;SDS011;46439;51.164;13.572;2023-03-05T00:56:21;12.30;;;2.50;;
60610;SDS011;46439;51.164;13.572;2023-03-05T00:58:50;8.00;;;2.30;;
60610;SDS011;46439;51.164;13.572;2023-03-05T01:01:19;5.90;;;2.00;;
60610;SDS011;46439;51.164;13.572;2023-03-05T01:03:47;9.10;;;1.90;;
60610;SDS011;46439;51.164;13.572;2023-03-05T01:06:16;9.00;;;2.30;;
60610;SDS011;46439;51.164;13.572;2023-03-05T01:08:44;10.80;;;2.70;;
60610;SDS011;46439;51.164;13.572;2023-03-05T01:11:13;11.70;;;2.30;;
60610;SDS011;46439;51.164;13.572;2023-03-05T01:13:42;15.50;;;2.20;;
60610;SDS011;46439;51.164;13.572;2023-03-05T01:16:11;10.10;;;2.10;;
60610;SDS011;46439;51.164;13.572;2023-03-05T01:18:39;7.00;;;1.60;;
60610;SDS011;46439;51.164;13.572;2023-03-05T01:21:08;11.20;;;2.60;;
60610;SDS011;46439;51.164;13.572;2023-03-05T01:23:37;6.80;;;2.00;;
60610;SDS011;46439;51.164;13.572;2023-03-05T01:26:05;7.60;;;2.00;;
60610;SDS011;46439;51.164;13.572;2023-03-05T01:28:35;7.90;;;1.80;;
60610;SDS011;46439;51.164;13.572;2023-03-05T01:31:07;10.00;;;2.50;;
60610;SDS011;46439;51.164;13.572;2023-03-05T01:33:36;5.80;;;1.80;;
60610;SDS011;46439;51.164;13.572;2023-03-05T01:36:07;12.10;;;2.20;;
60610;SDS011;46439;51.164;13.572;2023-03-05T01:38:38;5.80;;;2.00;;
60610;SDS011;46439;51.164;13.572;2023-03-05T01:41:07;11.10;;;1.90;;
60610;SDS011;46439;51.164;13.572;2023-03-05T01:43:37;5.60;;;1.70;;
60610;SDS011;46439;51.164;13.572;2023-03-05T01:46:21;5.60;;;2.00;;
60610;SDS011;46439;51.164;13.572;2023-03-05T01:48:54;7.60;;;1.90;;
60610;SDS011;46439;51.164;13.572;2023-03-05T01:51:29;10.30;;;1.80;;
60610;SDS011;46439;51.164;13.572;2023-03-05T01:54:01;7.20;;;1.80;;
60610;SDS011;46439;51.164;13.572;2023-03-05T01:56:31;9.20;;;1.90;;
60610;SDS011;46439;51.164;13.572;2023-03-05T01:59:01;8.50;;;1.90;;
60610;SDS011;46439;51.164;13.572;2023-03-05T02:01:31;10.10;;;1.80;;
60610;SDS011;46439;51.164;13.572;2023-03-05T02:04:04;8.80;;;2.00;;
60610;SDS011;46439;51.164;13.572;2023-03-05T02:06:35;5.10;;;1.60;;
60610;SDS011;46439;51.164;13.572;2023-03-05T02:09:06;4.80;;;1.70;;
60610;SDS011;46439;51.164;13.572;2023-03-05T02:11:35;6.50;;;1.70;;
60610;SDS011;46439;51.164;13.572;2023-03-05T02:14:04;12.00;;;2.10;;
60610;SDS011;46439;51.164;13.572;2023-03-05T02:16:34;7.50;;;1.80;;
60610;SDS011;46439;51.164;13.572;2023-03-05T02:19:05;7.80;;;1.90;;
60610;SDS011;46439;51.164;13.572;2023-03-05T02:21:36;7.80;;;1.60;;
60610;SDS011;46439;51.164;13.572;2023-03-05T02:24:09;6.80;;;1.60;;
60610;SDS011;46439;51.164;13.572;2023-03-05T02:26:39;6.90;;;2.30;;
60610;SDS011;46439;51.164;13.572;2023-03-05T02:29:11;6.50;;;1.70;;
60610;SDS011;46439;51.164;13.572;2023-03-05T02:31:43;9.50;;;1.70;;
60610;SDS011;46439;51.164;13.572;2023-03-05T02:34:12;6.80;;;1.70;;
60610;SDS011;46439;51.164;13.572;2023-03-05T02:36:40;8.60;;;2.00;;
60610;SDS011;46439;51.164;13.572;2023-03-05T02:39:09;4.90;;;1.50;;
60610;SDS011;46439;51.164;13.572;2023-03-05T02:41:38;6.50;;;1.10;;
60610;SDS011;46439;51.164;13.572;2023-03-05T02:44:06;5.20;;;1.50;;
60610;SDS011;46439;51.164;13.572;2023-03-05T02:46:35;4.40;;;1.30;;
60610;SDS011;46439;51.164;13.572;2023-03-05T02:49:03;3.80;;;1.20;;
60610;SDS011;46439;51.164;13.572;2023-03-05T02:51:32;7.40;;;1.50;;
60610;SDS011;46439;51.164;13.572;2023-03-05T02:54:00;6.10;;;1.90;;
60610;SDS011;46439;51.164;13.572;2023-03-05T02:56:29;7.10;;;1.30;;
60610;SDS011;46439;51.164;13.572;2023-03-05T02:58:58;4.70;;;1.70;;
60610;SDS011;46439;51.164;13.572;2023-03-05T03:01:26;6.70;;;1.70;;
60610;SDS011;46439;51.164;13.572;2023-03-05T03:03:55;5.50;;;1.50;;
60610;SDS011;46439;51.164;13.572;2023-03-05T03:06:23;4.00;;;1.50;;
60610;SDS011;46439;51.164;13.572;2023-03-05T03:08:52;5.30;;;1.50;;
60610;SDS011;46439;51.164;13.572;2023-03-05T03:11:21;2.80;;;1.20;;
60610;SDS011;46439;51.164;13.572;2023-03-05T03:13:49;4.10;;;1.50;;
60610;SDS011;46439;51.164;13.572;2023-03-05T03:16:18;8.80;;;2.30;;
60610;SDS011;46439;51.164;13.572;2023-03-05T03:18:46;6.60;;;1.40;;
60610;SDS011;46439;51.164;13.572;2023-03-05T03:21:19;5.80;;;1.50;;
60610;SDS011;46439;51.164;13.572;2023-03-05T03:23:49;6.60;;;1.40;;
60610;SDS011;46439;51.164;13.572;2023-03-05T03:26:18;3.90;;;1.50;;
60610;SDS011;46439;51.164;13.572;2023-03-05T03:28:47;5.10;;;1.10;;
60610;SDS011;46439;51.164;13.572;2023-03-05T03:31:16;4.20;;;1.40;;
60610;SDS011;46439;51.164;13.572;2023-03-05T03:33:44;5.20;;;1.40;;
60610;SDS011;46439;51.164;13.572;2023-03-05T03:36:13;3.90;;;1.40;;
60610;SDS011;46439;51.164;13.572;2023-03-05T03:38:41;6.00;;;1.60;;
60610;SDS011;46439;51.164;13.572;2023-03-05T03:41:10;9.90;;;1.80;;
60610;SDS011;46439;51.164;13.572;2023-03-05T03:43:38;6.50;;;2.20;;
60610;SDS011;46439;51.164;13.572;2023-03-05T03:46:07;6.00;;;1.90;;
60610;SDS011;46439;51.164;13.572;2023-03-05T03:48:35;4.80;;;2.00;;
60610;SDS011;46439;51.164;13.572;2023-03-05T03:51:05;9.40;;;2.30;;
60610;SDS011;46439;51.164;13.572;2023-03-05T03:53:34;7.30;;;2.70;;
60610;SDS011;46439;51.164;13.572;2023-03-05T03:56:03;3.10;;;1.60;;
60610;SDS011;46439;51.164;13.572;2023-03-05T03:58:32;7.90;;;2.40;;
60610;SDS011;46439;51.164;13.572;2023-03-05T04:01:00;5.20;;;1.90;;
60610;SDS011;46439;51.164;13.572;2023-03-05T04:03:29;7.10;;;2.90;;
60610;SDS011;46439;51.164;13.572;2023-03-05T04:05:58;5.90;;;2.40;;
60610;SDS011;46439;51.164;13.572;2023-03-05T04:08:26;4.60;;;1.70;;
60610;SDS011;46439;51.164;13.572;2023-03-05T04:10:55;5.60;;;3.00;;
60610;SDS011;46439;51.164;13.572;2023-03-05T04:13:23;6.90;;;1.70;;
60610;SDS011;46439;51.164;13.572;2023-03-05T04:15:52;5.30;;;1.40;;
60610;SDS011;46439;51.164;13.572;2023-03-05T04:18:20;4.00;;;1.50;;
60610;SDS011;46439;51.164;13.572;2023-03-05T04:20:49;3.20;;;1.40;;
60610;SDS011;46439;51.164;13.572;2023-03-05T04:23:18;4.40;;;1.50;;
60610;SDS011;46439;51.164;13.572;2023-03-05T04:25:47;6.10;;;1.70;;
60610;SDS011;46439;51.164;13.572;2023-03-05T04:28:15;4.70;;;1.60;;
60610;SDS011;46439;51.164;13.572;2023-03-05T04:30:44;6.40;;;2.50;;
60610;SDS011;46439;51.164;13.572;2023-03-05T04:33:12;3.20;;;1.60;;
60610;SDS011;46439;51.164;13.572;2023-03-05T04:35:41;8.00;;;2.00;;
60610;SDS011;46439;51.164;13.572;2023-03-05T04:38:09;7.70;;;2.30;;
60610;SDS011;46439;51.164;13.572;2023-03-05T04:40:38;8.80;;;2.20;;
60610;SDS011;46439;51.164;13.572;2023-03-05T04:43:07;4.00;;;1.40;;
60610;SDS011;46439;51.164;13.572;2023-03-05T04:45:37;2.20;;;1.50;;
60610;SDS011;46439;51.164;13.572;2023-03-05T04:48:07;5.80;;;1.80;;
60610;SDS011;46439;51.164;13.572;2023-03-05T04:50:36;5.20;;;1.60;;
60610;SDS011;46439;51.164;13.572;2023-03-05T04:53:05;3.50;;;1.50;;
60610;SDS011;46439;51.164;13.572;2023-03-05T04:55:34;5.20;;;1.70;;
60610;SDS011;46439;51.164;13.572;2023-03-05T04:58:02;3.80;;;2.00;;
60610;SDS011;46439;51.164;13.572;2023-03-05T05:00:30;4.30;;;2.00;;
60610;SDS011;46439;51.164;13.572;2023-03-05T05:02:59;5.00;;;2.30;;
60610;SDS011;46439;51.164;13.572;2023-03-05T05:05:28;5.10;;;1.70;;
60610;SDS011;46439;51.164;13.572;2023-03-05T05:07:57;2.70;;;1.70;;
60610;SDS011;46439;51.164;13.572;2023-03-05T05:10:26;6.20;;;1.90;;
60610;SDS011;46439;51.164;13.572;2023-03-05T05:12:56;5.20;;;1.70;;
60610;SDS011;46439;51.164;13.572;2023-03-05T05:15:25;5.00;;;2.10;;
60610;SDS011;46439;51.164;13.572;2023-03-05T05:17:54;5.40;;;1.70;;
60610;SDS011;46439;51.164;13.572;2023-03-05T05:20:22;4.30;;;1.80;;
60610;SDS011;46439;51.164;13.572;2023-03-05T05:22:51;6.40;;;2.10;;
60610;SDS011;46439;51.164;13.572;2023-03-05T05:25:19;4.40;;;1.80;;
60610;SDS011;46439;51.164;13.572;2023-03-05T05:27:48;6.00;;;2.10;;
60610;SDS011;46439;51.164;13.572;2023-03-05T05:30:16;3.60;;;1.90;;
60610;SDS011;46439;51.164;13.572;2023-03-05T05:32:45;7.90;;;2.00;;
60610;SDS011;46439;51.164;13.572;2023-03-05T05:35:13;6.30;;;1.90;;
60610;SDS011;46439;51.164;13.572;2023-03-05T05:37:41;5.60;;;1.80;;
60610;SDS011;46439;51.164;13.572;2023-03-05T05:40:11;5.50;;;1.80;;
60610;SDS011;46439;51.164;13.572;2023-03-05T05:45:27;4.20;;;2.10;;
60610;SDS011;46439;51.164;13.572;2023-03-05T05:47:56;4.40;;;1.90;;
60610;SDS011;46439;51.164;13.572;2023-03-05T05:50:25;3.50;;;1.60;;
60610;SDS011;46439;51.164;13.572;2023-03-05T05:52:54;6.20;;;2.00;;
60610;SDS011;46439;51.164;13.572;2023-03-05T05:55:22;4.70;;;1.80;;
60610;SDS011;46439;51.164;13.572;2023-03-05T05:57:51;5.00;;;1.60;;
60610;SDS011;46439;51.164;13.572;2023-03-05T06:00:20;3.60;;;1.70;;
60610;SDS011;46439;51.164;13.572;2023-03-05T06:02:49;6.70;;;1.90;;
60610;SDS011;46439;51.164;13.572;2023-03-05T06:05:18;2.50;;;1.80;;
60610;SDS011;46439;51.164;13.572;2023-03-05T06:07:46;7.10;;;1.70;;
60610;SDS011;46439;51.164;13.572;2023-03-05T06:10:15;4.80;;;1.50;;
60610;SDS011;46439;51.164;13.572;2023-03-05T06:12:44;3.40;;;1.70;;
60610;SDS011;46439;51.164;13.572;2023-03-05T06:15:13;6.50;;;2.10;;
60610;SDS011;46439;51.164;13.572;2023-03-05T06:17:42;6.40;;;1.80;;
60610;SDS011;46439;51.164;13.572;2023-03-05T06:20:12;8.10;;;1.80;;
60610;SDS011;46439;51.164;13.572;2023-03-05T06:22:41;5.80;;;1.80;;
60610;SDS011;46439;51.164;13.572;2023-03-05T06:25:10;7.50;;;3.20;;
60610;SDS011;46439;51.164;13.572;2023-03-05T06:27:39;8.40;;;2.70;;
60610;SDS011;46439;51.164;13.572;2023-03-05T06:30:09;7.00;;;3.20;;
60610;SDS011;46439;51.164;13.572;2023-03-05T06:32:38;7.30;;;3.70;;
60610;SDS011;46439;51.164;13.572;2023-03-05T06:35:08;5.80;;;2.70;;
60610;SDS011;46439;51.164;13.572;2023-03-05T06:37:36;6.80;;;3.10;;
60610;SDS011;46439;51.164;13.572;2023-03-05T06:40:06;8.00;;;2.90;;
60610;SDS011;46439;51.164;13.572;2023-03-05T06:42:37;6.40;;;3.20;;
60610;SDS011;46439;51.164;13.572;2023-03-05T06:45:06;5.40;;;2.00;;
60610;SDS011;46439;51.164;13.572;2023-03-05T06:47:36;5.20;;;2.00;;
60610;SDS011;46439;51.164;13.572;2023-03-05T06:50:06;6.60;;;2.80;;
60610;SDS011;46439;51.164;13.572;2023-03-05T06:52:36;4.40;;;1.80;;
60610;SDS011;46439;51.164;13.572;2023-03-05T06:55:08;5.50;;;1.50;;
60610;SDS011;46439;51.164;13.572;2023-03-05T07:00:07;4.60;;;1.90;;
60610;SDS011;46439;51.164;13.572;2023-03-05T07:02:37;6.00;;;2.10;;
60610;SDS011;46439;51.164;13.572;2023-03-05T07:05:06;3.60;;;1.80;;
60610;SDS011;46439;51.164;13.572;2023-03-05T07:07:36;3.10;;;1.60;;
60610;SDS011;46439;51.164;13.572;2023-03-05T07:10:06;3.30;;;1.60;;
60610;SDS011;46439;51.164;13.572;2023-03-05T07:12:36;2.70;;;1.50;;
60610;SDS011;46439;51.164;13.572;2023-03-05T07:15:06;4.70;;;1.80;;
60610;SDS011;46439;51.164;13.572;2023-03-05T07:17:35;4.30;;;1.80;;
60610;SDS011;46439;51.164;13.572;2023-03-05T07:20:05;3.50;;;1.70;;
60610;SDS011;46439;51.164;13.572;2023-03-05T07:22:37;3.50;;;1.70;;
60610;SDS011;46439;51.164;13.572;2023-03-05T07:25:06;2.90;;;1.10;;
60610;SDS011;46439;51.164;13.572;2023-03-05T07:27:36;4.50;;;1.80;;
60610;SDS011;46439;51.164;13.572;2023-03-05T07:30:06;4.30;;;1.90;;
60610;SDS011;46439;51.164;13.572;2023-03-05T07:32:36;3.00;;;1.70;;
60610;SDS011;46439;51.164;13.572;2023-03-05T07:35:06;4.30;;;1.60;;
60610;SDS011;46439;51.164;13.572;2023-03-05T07:37:35;3.90;;;1.60;;
60610;SDS011;46439;51.164;13.572;2023-03-05T07:40:05;3.80;;;1.30;;
60610;SDS011;46439;51.164;13.572;2023-03-05T07:42:36;4.00;;;1.40;;
60610;SDS011;46439;51.164;13.572;2023-03-05T07:45:05;4.00;;;1.00;;
60610;SDS011;46439;51.164;13.572;2023-03-05T07:47:35;2.50;;;1.30;;
60610;SDS011;46439;51.164;13.572;2023-03-05T07:50:05;2.30;;;1.40;;
60610;SDS011;46439;51.164;13.572;2023-03-05T07:52:35;4.40;;;1.60;;
60610;SDS011;46439;51.164;13.572;2023-03-05T07:55:05;5.10;;;1.60;;
60610;SDS011;46439;51.164;13.572;2023-03-05T07:57:34;4.90;;;1.50;;
60610;SDS011;46439;51.164;13.572;2023-03-05T08:00:04;3.60;;;1.40;;
60610;SDS011;46439;51.164;13.572;2023-03-05T08:02:34;3.60;;;1.80;;
60610;SDS011;46439;51.164;13.572;2023-03-05T08:05:03;2.80;;;1.70;;
60610;SDS011;46439;51.164;13.572;2023-03-05T08:07:33;3.50;;;1.60;;
60610;SDS011;46439;51.164;13.572;2023-03-05T08:10:01;3.50;;;1.60;;
60610;SDS011;46439;51.164;13.572;2023-03-05T08:12:30;3.30;;;1.70;;
60610;SDS011;46439;51.164;13.572;2023-03-05T08:14:59;4.90;;;1.60;;
60610;SDS011;46439;51.164;13.572;2023-03-05T08:17:28;6.50;;;1.50;;
60610;SDS011;46439;51.164;13.572;2023-03-05T08:19:56;2.50;;;1.30;;
60610;SDS011;46439;51.164;13.572;2023-03-05T08:22:26;1.30;;;1.20;;
60610;SDS011;46439;51.164;13.572;2023-03-05T08:24:55;3.60;;;1.80;;
60610;SDS011;46439;51.164;13.572;2023-03-05T08:27:23;4.50;;;1.80;;
60610;SDS011;46439;51.164;13.572;2023-03-05T08:29:52;4.10;;;1.90;;
60610;SDS011;46439;51.164;13.572;2023-03-05T08:32:21;5.30;;;1.70;;
60610;SDS011;46439;51.164;13.572;2023-03-05T08:34:49;5.40;;;2.00;;
60610;SDS011;46439;51.164;13.572;2023-03-05T08:37:23;2.30;;;1.70;;
60610;SDS011;46439;51.164;13.572;2023-03-05T08:39:51;5.40;;;2.20;;
60610;SDS011;46439;51.164;13.572;2023-03-05T08:42:21;2.80;;;1.80;;
60610;SDS011;46439;51.164;13.572;2023-03-05T08:44:51;5.70;;;2.20;;
60610;SDS011;46439;51.164;13.572;2023-03-05T08:47:20;3.80;;;2.10;;
60610;SDS011;46439;51.164;13.572;2023-03-05T08:49:51;5.00;;;2.00;;
60610;SDS011;46439;51.164;13.572;2023-03-05T08:52:23;4.40;;;2.10;;
60610;SDS011;46439;51.164;13.572;2023-03-05T08:54:52;4.10;;;2.20;;
60610;SDS011;46439;51.164;13.572;2023-03-05T08:57:22;7.20;;;2.30;;
60610;SDS011;46439;51.164;13.572;2023-03-05T08:59:51;5.90;;;2.30;;
60610;SDS011;46439;51.164;13.572;2023-03-05T09:02:19;4.20;;;2.40;;
60610;SDS011;46439;51.164;13.572;2023-03-05T09:04:48;6.00;;;2.20;;
60610;SDS011;46439;51.164;13.572;2023-03-05T09:07:17;3.80;;;1.80;;
60610;SDS011;46439;51.164;13.572;2023-03-05T09:09:45;3.50;;;1.90;;
60610;SDS011;46439;51.164;13.572;2023-03-05T09:12:14;5.50;;;2.80;;
60610;SDS011;46439;51.164;13.572;2023-03-05T09:14:42;10.40;;;5.20;;
60610;SDS011;46439;51.164;13.572;2023-03-05T09:17:10;9.60;;;3.70;;
60610;SDS011;46439;51.164;13.572;2023-03-05T09:19:39;8.00;;;2.70;;
60610;SDS011;46439;51.164;13.572;2023-03-05T09:22:08;4.30;;;2.70;;
60610;SDS011;46439;51.164;13.572;2023-03-05T09:24:36;8.70;;;2.60;;
60610;SDS011;46439;51.164;13.572;2023-03-05T09:27:05;8.90;;;3.00;;
60610;SDS011;46439;51.164;13.572;2023-03-05T09:29:34;4.00;;;2.50;;
60610;SDS011;46439;51.164;13.572;2023-03-05T09:32:02;3.40;;;2.50;;
60610;SDS011;46439;51.164;13.572;2023-03-05T09:34:31;5.90;;;2.60;;
60610;SDS011;46439;51.164;13.572;2023-03-05T09:37:00;3.20;;;2.40;;
60610;SDS011;46439;51.164;13.572;2023-03-05T09:39:29;4.90;;;2.50;;
60610;SDS011;46439;51.164;13.572;2023-03-05T09:42:05;3.90;;;2.30;;
60610;SDS011;46439;51.164;13.572;2023-03-05T09:44:53;5.00;;;2.80;;
60610;SDS011;46439;51.164;13.572;2023-03-05T09:47:32;4.90;;;2.80;;
60610;SDS011;46439;51.164;13.572;2023-03-05T09:50:21;8.20;;;2.30;;
60610;SDS011;46439;51.164;13.572;2023-03-05T09:53:00;7.30;;;2.40;;
60610;SDS011;46439;51.164;13.572;2023-03-05T09:55:34;4.20;;;2.60;;
60610;SDS011;46439;51.164;13.572;2023-03-05T09:58:06;6.70;;;2.50;;
60610;SDS011;46439;51.164;13.572;2023-03-05T10:00:40;6.20;;;2.60;;
60610;SDS011;46439;51.164;13.572;2023-03-05T10:03:13;4.10;;;2.40;;
60610;SDS011;46439;51.164;13.572;2023-03-05T10:05:57;4.10;;;2.20;;
60610;SDS011;46439;51.164;13.572;2023-03-05T10:08:34;4.60;;;2.20;;
60610;SDS011;46439;51.164;13.572;2023-03-05T10:11:21;3.90;;;2.50;;
60610;SDS011;46439;51.164;13.572;2023-03-05T10:14:09;6.70;;;4.10;;
60610;SDS011;46439;51.164;13.572;2023-03-05T10:16:51;4.60;;;2.30;;
60610;SDS011;46439;51.164;13.572;2023-03-05T10:19:39;4.50;;;2.20;;
60610;SDS011;46439;51.164;13.572;2023-03-05T10:22:19;4.10;;;2.20;;
60610;SDS011;46439;51.164;13.572;2023-03-05T10:24:55;5.40;;;2.20;;
60610;SDS011;46439;51.164;13.572;2023-03-05T10:27:41;4.20;;;2.10;;
60610;SDS011;46439;51.164;13.572;2023-03-05T10:30:21;3.90;;;2.10;;
60610;SDS011;46439;51.164;13.572;2023-03-05T10:33:12;3.80;;;2.10;;
60610;SDS011;46439;51.164;13.572;2023-03-05T10:35:52;5.70;;;2.30;;
60610;SDS011;46439;51.164;13.572;2023-03-05T10:38:47;5.00;;;2.30;;
60610;SDS011;46439;51.164;13.572;2023-03-05T10:41:31;3.90;;;2.10;;
60610;SDS011;46439;51.164;13.572;2023-03-05T10:44:08;6.00;;;2.70;;
60610;SDS011;46439;51.164;13.572;2023-03-05T10:46:42;3.60;;;2.00;;
60610;SDS011;46439;51.164;13.572;2023-03-05T10:49:16;3.60;;;2.10;;
60610;SDS011;46439;51.164;13.572;2023-03-05T10:51:49;3.60;;;2.40;;
60610;SDS011;46439;51.164;13.572;2023-03-05T10:54:25;4.50;;;2.20;;
60610;SDS011;46439;51.164;13.572;2023-03-05T10:57:12;3.60;;;2.20;;
60610;SDS011;46439;51.164;13.572;2023-03-05T10:59:46;5.50;;;2.10;;
60610;SDS011;46439;51.164;13.572;2023-03-05T11:02:17;6.10;;;2.00;;
60610;SDS011;46439;51.164;13.572;2023-03-05T11:04:47;5.70;;;2.30;;
60610;SDS011;46439;51.164;13.572;2023-03-05T11:07:37;5.70;;;2.30;;
60610;SDS011;46439;51.164;13.572;2023-03-05T11:10:12;4.50;;;1.70;;
60610;SDS011;46439;51.164;13.572;2023-03-05T11:12:46;5.40;;;2.30;;
60610;SDS011;46439;51.164;13.572;2023-03-05T11:15:28;7.70;;;4.60;;
60610;SDS011;46439;51.164;13.572;2023-03-05T11:18:05;10.10;;;6.30;;
60610;SDS011;46439;51.164;13.572;2023-03-05T11:20:42;4.60;;;2.80;;
60610;SDS011;46439;51.164;13.572;2023-03-05T11:23:12;4.40;;;2.30;;
60610;SDS011;46439;51.164;13.572;2023-03-05T11:25:55;5.00;;;2.30;;
60610;SDS011;46439;51.164;13.572;2023-03-05T11:28:28;3.90;;;2.00;;
60610;SDS011;46439;51.164;13.572;2023-03-05T11:31:00;3.00;;;1.90;;
60610;SDS011;46439;51.164;13.572;2023-03-05T11:33:36;4.00;;;2.20;;
60610;SDS011;46439;51.164;13.572;2023-03-05T11:41:33;5.90;;;2.70;;
60610;SDS011;46439;51.164;13.572;2023-03-05T11:44:05;3.40;;;2.00;;
60610;SDS011;46439;51.164;13.572;2023-03-05T11:46:41;4.00;;;2.70;;
60610;SDS011;46439;51.164;13.572;2023-03-05T11:49:14;6.60;;;2.80;;
60610;SDS011;46439;51.164;13.572;2023-03-05T11:51:47;4.50;;;2.60;;
60610;SDS011;46439;51.164;13.572;2023-03-05T11:54:25;6.50;;;2.70;;
60610;SDS011;46439;51.164;13.572;2023-03-05T11:56:57;3.90;;;2.50;;
60610;SDS011;46439;51.164;13.572;2023-03-05T11:59:28;3.60;;;2.30;;
60610;SDS011;46439;51.164;13.572;2023-03-05T12:02:00;5.80;;;2.80;;
60610;SDS011;46439;51.164;13.572;2023-03-05T12:04:36;4.00;;;2.60;;
60610;SDS011;46439;51.164;13.572;2023-03-05T12:09:52;5.90;;;3.00;;
60610;SDS011;46439;51.164;13.572;2023-03-05T12:12:31;6.20;;;3.50;;
60610;SDS011;46439;51.164;13.572;2023-03-05T12:15:23;7.70;;;4.70;;
60610;SDS011;46439;51.164;13.572;2023-03-05T12:18:09;8.80;;;3.40;;
60610;SDS011;46439;51.164;13.572;2023-03-05T12:20:46;6.60;;;2.40;;
60610;SDS011;46439;51.164;13.572;2023-03-05T12:23:21;7.90;;;2.90;;
60610;SDS011;46439;51.164;13.572;2023-03-05T12:25:54;6.90;;;2.90;;
60610;SDS011;46439;51.164;13.572;2023-03-05T12:31:36;7.20;;;2.90;;
60610;SDS011;46439;51.164;13.572;2023-03-05T12:37:11;5.60;;;2.90;;
60610;SDS011;46439;51.164;13.572;2023-03-05T12:39:47;6.10;;;3.50;;
60610;SDS011;46439;51.164;13.572;2023-03-05T12:42:41;5.70;;;3.40;;
60610;SDS011;46439;51.164;13.572;2023-03-05T12:45:24;4.70;;;2.80;;
60610;SDS011;46439;51.164;13.572;2023-03-05T12:51:10;4.10;;;2.60;;
60610;SDS011;46439;51.164;13.572;2023-03-05T12:53:53;6.60;;;4.00;;
60610;SDS011;46439;51.164;13.572;2023-03-05T12:56:23;7.80;;;3.90;;
60610;SDS011;46439;51.164;13.572;2023-03-05T12:58:56;9.00;;;4.40;;
60610;SDS011;46439;51.164;13.572;2023-03-05T13:01:35;7.70;;;3.80;;
60610;SDS011;46439;51.164;13.572;2023-03-05T13:04:13;5.70;;;3.60;;
60610;SDS011;46439;51.164;13.572;2023-03-05T13:06:46;4.30;;;2.30;;
60610;SDS011;46439;51.164;13.572;2023-03-05T13:09:25;5.30;;;2.50;;
60610;SDS011;46439;51.164;13.572;2023-03-05T13:12:02;3.70;;;2.30;;
60610;SDS011;46439;51.164;13.572;2023-03-05T13:14:38;5.40;;;2.50;;
60610;SDS011;46439;51.164;13.572;2023-03-05T13:17:25;5.00;;;2.30;;
60610;SDS011;46439;51.164;13.572;2023-03-05T13:19:55;9.50;;;4.20;;
60610;SDS011;46439;51.164;13.572;2023-03-05T13:22:25;6.10;;;2.90;;
60610;SDS011;46439;51.164;13.572;2023-03-05T13:27:46;8.70;;;5.90;;
60610;SDS011;46439;51.164;13.572;2023-03-05T13:30:22;8.20;;;5.00;;
60610;SDS011;46439;51.164;13.572;2023-03-05T13:32:53;7.90;;;4.10;;
60610;SDS011;46439;51.164;13.572;2023-03-05T13:35:28;8.80;;;4.80;;
60610;SDS011;46439;51.164;13.572;2023-03-05T13:37:58;5.50;;;3.70;;
60610;SDS011;46439;51.164;13.572;2023-03-05T13:40:28;4.90;;;3.00;;
60610;SDS011;46439;51.164;13.572;2023-03-05T13:43:09;7.40;;;3.20;;
60610;SDS011;46439;51.164;13.572;2023-03-05T13:45:46;9.10;;;4.90;;
60610;SDS011;46439;51.164;13.572;2023-03-05T13:48:25;12.50;;;6.50;;
60610;SDS011;46439;51.164;13.572;2023-03-05T13:50:55;7.40;;;3.70;;
60610;SDS011;46439;51.164;13.572;2023-03-05T13:53:24;6.20;;;2.70;;
60610;SDS011;46439;51.164;13.572;2023-03-05T13:55:56;5.00;;;3.00;;
60610;SDS011;46439;51.164;13.572;2023-03-05T13:58:43;5.90;;;3.00;;
60610;SDS011;46439;51.164;13.572;2023-03-05T14:01:20;3.10;;;2.40;;
60610;SDS011;46439;51.164;13.572;2023-03-05T14:03:53;3.90;;;2.30;;
60610;SDS011;46439;51.164;13.572;2023-03-05T14:06:24;3.70;;;2.20;;
60610;SDS011;46439;51.164;13.572;2023-03-05T14:08:56;1.80;;;1.60;;
60610;SDS011;46439;51.164;13.572;2023-03-05T14:11:31;2.00;;;1.80;;
60610;SDS011;46439;51.164;13.572;2023-03-05T14:14:03;2.90;;;1.90;;
60610;SDS011;46439;51.164;13.572;2023-03-05T14:16:40;3.90;;;2.70;;
60610;SDS011;46439;51.164;13.572;2023-03-05T14:19:23;4.40;;;2.60;;
60610;SDS011;46439;51.164;13.572;2023-03-05T14:21:58;2.60;;;2.20;;
60610;SDS011;46439;51.164;13.572;2023-03-05T14:24:27;5.90;;;3.50;;
60610;SDS011;46439;51.164;13.572;2023-03-05T14:26:58;6.90;;;4.40;;
60610;SDS011;46439;51.164;13.572;2023-03-05T14:29:31;2.30;;;1.90;;
60610;SDS011;46439;51.164;13.572;2023-03-05T14:32:01;2.40;;;2.10;;
60610;SDS011;46439;51.164;13.572;2023-03-05T14:34:32;3.10;;;2.30;;
60610;SDS011;46439;51.164;13.572;2023-03-05T14:37:04;6.50;;;3.00;;
60610;SDS011;46439;51.164;13.572;2023-03-05T14:39:44;5.20;;;3.10;;
60610;SDS011;46439;51.164;13.572;2023-03-05T14:45:11;8.40;;;4.70;;
60610;SDS011;46439;51.164;13.572;2023-03-05T14:47:40;3.80;;;2.50;;
60610;SDS011;46439;51.164;13.572;2023-03-05T14:50:13;4.20;;;2.90;;
60610;SDS011;46439;51.164;13.572;2023-03-05T14:52:44;3.80;;;2.50;;
60610;SDS011;46439;51.164;13.572;2023-03-05T14:55:17;6.40;;;3.30;;
60610;SDS011;46439;51.164;13.572;2023-03-05T14:57:48;4.50;;;3.00;;
60610;SDS011;46439;51.164;13.572;2023-03-05T15:00:27;4.50;;;2.70;;
60610;SDS011;46439;51.164;13.572;2023-03-05T15:02:56;5.50;;;2.80;;
60610;SDS011;46439;51.164;13.572;2023-03-05T15:05:24;4.90;;;2.80;;
60610;SDS011;46439;51.164;13.572;2023-03-05T15:07:53;4.30;;;2.80;;
60610;SDS011;46439;51.164;13.572;2023-03-05T15:10:23;5.60;;;3.00;;
60610;SDS011;46439;51.164;13.572;2023-03-05T15:12:52;6.70;;;4.00;;
60610;SDS011;46439;51.164;13.572;2023-03-05T15:15:21;6.00;;;3.60;;
60610;SDS011;46439;51.164;13.572;2023-03-05T15:17:50;5.20;;;3.40;;
60610;SDS011;46439;51.164;13.572;2023-03-05T15:20:21;5.90;;;3.10;;
60610;SDS011;46439;51.164;13.572;2023-03-05T15:22:51;7.60;;;3.60;;
60610;SDS011;46439;51.164;13.572;2023-03-05T15:25:21;5.20;;;3.40;;
60610;SDS011;46439;51.164;13.572;2023-03-05T15:27:52;6.90;;;3.60;;